createdAt,value
2018-04-19T00:08:28.453Z,102196.84
2018-04-19T00:10:55.990Z,102193.81
2018-04-19T00:13:23.567Z,102196.41
2018-04-19T00:15:51.166Z,102190.01
2018-04-19T00:18:18.831Z,102189.58
2018-04-19T00:20:46.453Z,102188.31
2018-04-19T00:23:14.021Z,102187.04
2018-04-19T00:25:41.571Z,102187.06
2018-04-19T00:28:09.129Z,102184.48
2018-04-19T00:30:36.754Z,102176.33
2018-04-19T00:33:04.354Z,102178.48
2018-04-19T00:35:31.940Z,102167.77
2018-04-19T00:37:59.480Z,102169.45
2018-04-19T00:40:27.049Z,102171.61
2018-04-19T00:42:54.634Z,102166.45
2018-04-19T00:45:22.221Z,102167.30
2018-04-19T00:47:49.777Z,102166.44
2018-04-19T00:50:17.374Z,102166.83
2018-04-19T00:52:56.720Z,102169.89
2018-04-19T00:55:24.296Z,102159.17
2018-04-19T00:57:52.184Z,102162.17
2018-04-19T01:00:19.738Z,102166.88
2018-04-19T01:02:47.288Z,102159.17
2018-04-19T01:05:14.892Z,102160.02
2018-04-19T01:07:42.473Z,102162.61
2018-04-19T01:10:10.038Z,102159.20
2018-04-19T01:12:37.636Z,102153.59
2018-04-19T01:15:05.210Z,102155.32
2018-04-19T01:17:32.777Z,102160.02
2018-04-19T01:20:00.351Z,102154.88
2018-04-19T01:22:27.901Z,102151.87
2018-04-19T01:24:55.473Z,102151.43
2018-04-19T01:27:23.053Z,102155.73
2018-04-19T01:29:50.669Z,102156.99
2018-04-19T01:32:18.226Z,102157.38
2018-04-19T01:34:45.778Z,102154.84
2018-04-19T01:37:13.365Z,102160.02
2018-04-19T01:39:40.934Z,102158.72
2018-04-19T01:42:08.531Z,102156.15
2018-04-19T01:44:36.087Z,102153.99
2018-04-19T01:47:03.701Z,102151.85
2018-04-19T01:49:31.265Z,102147.58
2018-04-19T01:51:58.815Z,102146.70
2018-04-19T01:54:26.426Z,102148.35
2018-04-19T01:56:54.438Z,102143.67
2018-04-19T01:59:22.018Z,102139.80
2018-04-19T02:02:06.393Z,102143.26
2018-04-19T02:04:34.004Z,102140.23
2018-04-19T02:07:01.576Z,102135.08
2018-04-19T02:09:29.144Z,102132.12
2018-04-19T02:11:56.746Z,102130.44
2018-04-19T02:14:24.381Z,102128.33
2018-04-19T02:16:51.981Z,102121.91
2018-04-19T02:19:19.536Z,102131.34
2018-04-19T02:21:47.113Z,102128.78
2018-04-19T02:24:14.683Z,102126.17
2018-04-19T02:26:42.275Z,102126.62
2018-04-19T02:29:09.827Z,102124.50
2018-04-19T02:31:37.401Z,102122.36
2018-04-19T02:34:04.968Z,102124.92
2018-04-19T02:36:32.689Z,102121.06
2018-04-19T02:39:00.283Z,102120.23
2018-04-19T02:41:27.846Z,102120.66
2018-04-19T02:43:55.448Z,102122.80
2018-04-19T02:46:23.004Z,102125.79
2018-04-19T02:48:50.571Z,102124.52
2018-04-19T02:51:18.152Z,102110.35
2018-04-19T02:53:45.736Z,102119.78
2018-04-19T02:56:13.316Z,102117.64
2018-04-19T02:58:40.897Z,102112.92
2018-04-19T03:01:08.493Z,102110.34
2018-04-19T03:03:36.041Z,102106.91
2018-04-19T03:06:03.628Z,102109.50
2018-04-19T03:08:31.227Z,102106.50
2018-04-19T03:10:58.922Z,102101.79
2018-04-19T03:13:26.511Z,102097.07
2018-04-19T03:15:54.365Z,102097.91
2018-04-19T03:18:21.936Z,102102.64
2018-04-19T03:20:49.518Z,102103.50
2018-04-19T03:23:17.941Z,102093.23
2018-04-19T03:25:45.537Z,102091.52
2018-04-19T03:28:13.122Z,102100.48
2018-04-19T03:30:40.704Z,102097.09
2018-04-19T03:33:08.260Z,102098.37
2018-04-19T03:35:35.795Z,102102.20
2018-04-19T03:38:03.386Z,102097.08
2018-04-19T03:40:30.962Z,102095.78
2018-04-19T03:42:58.692Z,102098.35
2018-04-19T03:45:26.251Z,102095.38
2018-04-19T03:47:53.885Z,102092.34
2018-04-19T03:50:21.445Z,102092.80
2018-04-19T03:52:49.039Z,102098.34
2018-04-19T03:55:16.627Z,102098.36
2018-04-19T03:57:44.289Z,102106.47
2018-04-19T04:00:11.854Z,102105.63
2018-04-19T04:02:39.433Z,102099.64
2018-04-19T04:05:06.983Z,102094.92
2018-04-19T04:07:34.594Z,102096.62
2018-04-19T04:10:02.221Z,102097.48
2018-04-19T04:12:29.784Z,102091.47
2018-04-19T04:14:57.352Z,102094.03
2018-04-19T04:17:36.603Z,102093.57
2018-04-19T04:23:27.213Z,102095.72
2018-04-19T04:25:54.810Z,102095.72
2018-04-19T04:28:22.382Z,102094.41
2018-04-19T04:30:49.937Z,102098.70
2018-04-19T04:33:17.619Z,102094.42
2018-04-19T04:35:45.184Z,102093.58
2018-04-19T04:38:12.792Z,102100.84
2018-04-19T04:40:40.361Z,102098.70
2018-04-19T04:43:07.899Z,102104.28
2018-04-19T04:45:35.503Z,102106.00
2018-04-19T04:48:03.065Z,102105.98
2018-04-19T04:50:30.679Z,102111.12
2018-04-19T04:52:58.251Z,102110.70
2018-04-19T04:55:25.835Z,102107.67
2018-04-19T04:57:53.441Z,102107.25
2018-04-19T05:00:21.066Z,102107.72
2018-04-19T05:02:49.616Z,102106.42
2018-04-19T05:05:17.268Z,102110.28
2018-04-19T05:07:44.833Z,102110.70
2018-04-19T05:10:12.406Z,102114.55
2018-04-19T05:12:40.006Z,102114.57
2018-04-19T05:15:07.616Z,102116.30
2018-04-19T05:17:35.277Z,102112.03
2018-04-19T05:20:02.945Z,102113.75
2018-04-19T05:22:30.532Z,102114.61
2018-04-19T05:24:58.083Z,102117.20
2018-04-19T05:27:25.646Z,102111.20
2018-04-19T05:29:53.206Z,102118.05
2018-04-19T05:32:20.780Z,102115.06
2018-04-19T05:34:48.363Z,102114.22
2018-04-19T05:37:15.978Z,102119.77
2018-04-19T05:39:43.532Z,102118.09
2018-04-19T05:42:11.134Z,102120.23
2018-04-19T05:44:38.698Z,102110.34
2018-04-19T05:47:06.256Z,102114.21
2018-04-19T05:49:33.809Z,102112.02
2018-04-19T05:52:01.392Z,102115.38
2018-04-19T05:54:28.950Z,102113.91
2018-04-19T05:56:56.525Z,102110.77
2018-04-19T05:59:24.083Z,102106.38
2018-04-19T06:01:51.690Z,102106.25
2018-04-19T06:04:19.317Z,102107.66
2018-04-19T06:06:46.870Z,102107.34
2018-04-19T06:09:14.463Z,102106.86
2018-04-19T06:11:42.046Z,102106.72
2018-04-19T06:14:09.614Z,102107.05
2018-04-19T06:16:37.170Z,102104.14
2018-04-19T06:19:04.788Z,102106.08
2018-04-19T06:21:32.347Z,102104.36
2018-04-19T06:23:59.914Z,102103.09
2018-04-19T06:26:27.474Z,102106.12
2018-04-19T06:28:55.063Z,102109.16
2018-04-19T06:31:22.606Z,102113.02
2018-04-19T06:33:50.174Z,102116.04
2018-04-19T06:36:17.733Z,102117.41
2018-04-19T06:38:45.289Z,102114.77
2018-04-19T06:41:12.846Z,102117.44
2018-04-19T06:43:40.505Z,102122.66
2018-04-19T06:46:08.060Z,102116.28
2018-04-19T06:48:35.639Z,102119.22
2018-04-19T06:51:03.181Z,102119.98
2018-04-19T06:53:30.727Z,102118.52
2018-04-19T06:55:58.314Z,102123.41
2018-04-19T06:58:25.849Z,102119.40
2018-04-19T07:00:53.401Z,102120.11
2018-04-19T07:03:20.984Z,102122.88
2018-04-19T07:05:48.558Z,102117.77
2018-04-19T07:08:16.145Z,102120.22
2018-04-19T07:10:43.705Z,102117.11
2018-04-19T07:13:11.263Z,102112.80
2018-04-19T07:15:38.805Z,102121.73
2018-04-19T07:18:06.667Z,102123.55
2018-04-19T07:20:34.220Z,102123.89
2018-04-19T07:23:01.830Z,102120.78
2018-04-19T07:25:29.368Z,102118.01
2018-04-19T07:27:56.944Z,102115.73
2018-04-19T07:30:24.528Z,102123.30
2018-04-19T07:32:52.089Z,102118.52
2018-04-19T07:35:19.716Z,102116.91
2018-04-19T07:37:47.278Z,102120.75
2018-04-19T07:40:14.839Z,102118.98
2018-04-19T07:42:42.386Z,102116.16
2018-04-19T07:45:09.958Z,102122.61
2018-04-19T07:47:37.518Z,102121.39
2018-04-19T07:50:05.072Z,102125.13
2018-04-19T07:52:32.628Z,102126.52
2018-04-19T07:55:00.179Z,102127.71
2018-04-19T07:57:27.760Z,102123.55
2018-04-19T07:59:55.326Z,102122.72
2018-04-19T08:02:22.887Z,102123.92
2018-04-19T08:04:50.456Z,102125.13
2018-04-19T08:07:18.166Z,102127.06
2018-04-19T08:09:45.746Z,102128.50
2018-04-19T08:12:13.309Z,102124.17
2018-04-19T08:14:40.897Z,102131.09
2018-04-19T08:17:08.470Z,102134.81
2018-04-19T08:19:36.155Z,102129.16
2018-04-19T08:22:03.717Z,102127.09
2018-04-19T08:24:31.304Z,102125.28
2018-04-19T08:26:58.862Z,102121.81
2018-04-19T08:29:26.802Z,102122.34
2018-04-19T08:31:54.386Z,102124.39
2018-04-19T08:34:21.923Z,102123.25
2018-04-19T08:36:49.544Z,102123.41
2018-04-19T08:39:17.104Z,102119.27
2018-04-19T08:41:44.661Z,102123.62
2018-04-19T08:44:12.233Z,102122.95
2018-04-19T08:46:39.786Z,102122.91
2018-04-19T08:49:07.352Z,102121.28
2018-04-19T08:51:34.906Z,102123.25
2018-04-19T08:54:02.496Z,102128.73
2018-04-19T08:56:30.060Z,102125.11
2018-04-19T08:58:57.617Z,102126.72
2018-04-19T09:01:25.173Z,102120.50
2018-04-19T09:03:52.757Z,102126.32
2018-04-19T09:06:20.310Z,102123.42
2018-04-19T09:08:47.882Z,102123.41
2018-04-19T09:11:15.441Z,102116.59
2018-04-19T09:13:43.004Z,102120.03
2018-04-19T09:16:10.549Z,102123.98
2018-04-19T09:18:38.130Z,102114.63
2018-04-19T09:21:05.703Z,102122.03
2018-04-19T09:23:33.272Z,102116.44
2018-04-19T09:26:00.829Z,102118.45
2018-04-19T09:28:28.419Z,102117.66
2018-04-19T09:30:55.976Z,102119.77
2018-04-19T09:33:23.648Z,102111.41
2018-04-19T09:35:51.230Z,102114.05
2018-04-19T09:38:18.811Z,102104.94
2018-04-19T09:40:46.376Z,102121.81
2018-04-19T09:43:13.932Z,102118.27
2018-04-19T09:45:41.493Z,102113.67
2018-04-19T09:48:09.053Z,102117.89
2018-04-19T09:50:36.665Z,102111.89
2018-04-19T09:53:04.299Z,102110.28
2018-04-19T09:55:31.887Z,102115.06
2018-04-19T09:58:10.355Z,102108.01
2018-04-19T10:00:43.563Z,102113.97
2018-04-19T10:03:16.683Z,102107.58
2018-04-19T10:05:48.059Z,102109.71
2018-04-19T10:08:15.615Z,102099.98
2018-04-19T10:10:43.154Z,102104.36
2018-04-19T10:13:10.709Z,102092.20
2018-04-19T10:15:38.323Z,102098.19
2018-04-19T10:18:05.885Z,102100.48
2018-04-19T10:20:33.451Z,102096.34
2018-04-19T10:23:01.041Z,102093.21
2018-04-19T10:25:28.625Z,102094.86
2018-04-19T10:27:56.205Z,102085.34
2018-04-19T10:30:23.776Z,102084.63
2018-04-19T10:32:51.318Z,102085.70
2018-04-19T10:35:18.874Z,102078.84
2018-04-19T10:37:46.433Z,102079.81
2018-04-19T10:40:13.981Z,102079.81
2018-04-19T10:42:41.553Z,102071.50
2018-04-19T10:45:09.144Z,102069.30
2018-04-19T10:47:36.720Z,102070.73
2018-04-19T10:50:04.331Z,102070.08
2018-04-19T10:52:31.881Z,102069.98
2018-04-19T10:54:59.448Z,102064.39
2018-04-19T10:57:27.005Z,102055.56
2018-04-19T10:59:54.546Z,102061.79
2018-04-19T11:02:22.127Z,102057.59
2018-04-19T11:04:49.676Z,102059.98
2018-04-19T11:07:17.245Z,102065.35
2018-04-19T11:09:44.808Z,102053.28
2018-04-19T11:12:12.361Z,102059.20
2018-04-19T11:14:39.924Z,102054.50
2018-04-19T11:17:07.484Z,102050.63
2018-04-19T11:19:35.080Z,102046.16
2018-04-19T11:22:02.642Z,102049.69
2018-04-19T11:24:30.197Z,102050.20
2018-04-19T11:26:57.752Z,102041.73
2018-04-19T11:29:25.366Z,102035.35
2018-04-19T11:31:52.918Z,102041.42
2018-04-19T11:34:20.513Z,102051.34
2018-04-19T11:36:48.057Z,102036.44
2018-04-19T11:39:15.615Z,102039.37
2018-04-19T11:41:43.178Z,102026.96
2018-04-19T11:44:10.776Z,102026.66
2018-04-19T11:46:38.343Z,102016.37
2018-04-19T11:49:05.915Z,102026.36
2018-04-19T11:51:33.479Z,102021.02
2018-04-19T11:54:01.032Z,102016.60
2018-04-19T11:56:28.603Z,102016.00
2018-04-19T11:58:56.164Z,102018.51
2018-04-19T12:01:23.721Z,102018.71
2018-04-19T12:03:51.277Z,102020.36
2018-04-19T12:06:18.805Z,102017.37
2018-04-19T12:08:46.361Z,102021.23
2018-04-19T12:11:13.921Z,102020.91
2018-04-19T12:13:41.480Z,102013.43
2018-04-19T12:16:09.033Z,102014.16
2018-04-19T12:18:36.578Z,102004.66
2018-04-19T12:21:04.143Z,102005.97
2018-04-19T12:23:31.686Z,102001.91
2018-04-19T12:25:59.252Z,102001.22
2018-04-19T12:28:26.841Z,102000.05
2018-04-19T12:30:54.406Z,101998.31
2018-04-19T12:33:21.985Z,101996.61
2018-04-19T12:35:49.579Z,102000.97
2018-04-19T12:38:17.145Z,101986.19
2018-04-19T12:40:44.723Z,101989.20
2018-04-19T12:43:12.284Z,101984.85
2018-04-19T12:45:39.821Z,101985.69
2018-04-19T12:48:07.421Z,101983.15
2018-04-19T12:50:34.959Z,101985.25
2018-04-19T12:53:02.521Z,101980.28
2018-04-19T12:55:30.061Z,101985.75
2018-04-19T12:57:57.624Z,101985.80
2018-04-19T13:00:25.188Z,101977.66
2018-04-19T13:02:52.771Z,101971.05
2018-04-19T13:05:20.342Z,101971.66
2018-04-19T13:07:47.887Z,101975.64
2018-04-19T13:10:15.447Z,101962.88
2018-04-19T13:12:43.012Z,101954.52
2018-04-19T13:15:10.569Z,101967.74
2018-04-19T13:17:38.275Z,101951.24
2018-04-19T13:20:05.894Z,101946.31
2018-04-19T13:22:33.452Z,101945.67
2018-04-19T13:25:01.048Z,101945.20
2018-04-19T13:27:28.594Z,101938.97
2018-04-19T13:29:56.161Z,101946.39
2018-04-19T13:32:23.810Z,101941.41
2018-04-19T13:34:51.617Z,101943.04
2018-04-19T13:37:19.207Z,101934.30
2018-04-19T13:39:46.782Z,101939.17
2018-04-19T13:42:14.391Z,101929.61
2018-04-19T13:44:41.966Z,101935.00
2018-04-19T13:47:09.513Z,101931.24
2018-04-19T13:49:37.149Z,101925.19
2018-04-19T13:52:04.683Z,101936.89
2018-04-19T13:54:32.268Z,101927.47
2018-04-19T13:56:59.858Z,101926.11
2018-04-19T13:59:27.429Z,101927.05
2018-04-19T14:01:55.082Z,101923.06
2018-04-19T14:04:22.620Z,101922.53
2018-04-19T14:06:50.183Z,101918.95
2018-04-19T14:09:17.782Z,101917.14
2018-04-19T14:11:45.346Z,101924.07
2018-04-19T14:14:12.945Z,101912.73
2018-04-19T14:16:40.500Z,101910.95
2018-04-19T14:19:08.054Z,101913.14
2018-04-19T14:21:35.619Z,101906.84
2018-04-19T14:24:03.201Z,101905.11
2018-04-19T14:26:30.776Z,101902.50
2018-04-19T14:28:58.322Z,101900.89
2018-04-19T14:31:25.870Z,101897.66
2018-04-19T14:33:53.456Z,101896.57
2018-04-19T14:36:21.032Z,101895.70
2018-04-19T14:38:48.590Z,101888.67
2018-04-19T14:41:16.154Z,101893.57
2018-04-19T14:43:43.720Z,101889.70
2018-04-19T14:46:11.292Z,101890.97
2018-04-19T14:48:38.867Z,101880.41
2018-04-19T14:51:06.437Z,101888.06
2018-04-19T14:53:34.040Z,101889.22
2018-04-19T14:56:01.594Z,101890.05
2018-04-19T14:58:29.157Z,101877.64
2018-04-19T15:00:56.729Z,101882.97
2018-04-19T15:03:24.655Z,101886.91
2018-04-19T15:05:52.256Z,101874.70
2018-04-19T15:08:20.011Z,101877.43
2018-04-19T15:10:47.586Z,101877.56
2018-04-19T15:13:15.221Z,101874.22
2018-04-19T15:15:42.738Z,101870.30
2018-04-19T15:18:10.295Z,101869.59
2018-04-19T15:20:37.857Z,101869.02
2018-04-19T15:23:05.417Z,101873.52
2018-04-19T15:25:33.238Z,101869.32
2018-04-19T15:28:00.804Z,101862.30
2018-04-19T15:30:28.367Z,101861.41
2018-04-19T15:32:55.938Z,101867.58
2018-04-19T15:35:23.975Z,101861.45
2018-04-19T15:37:51.539Z,101855.70
2018-04-19T15:40:19.109Z,101855.27
2018-04-19T15:42:46.684Z,101857.31
2018-04-19T15:45:14.244Z,101856.58
2018-04-19T15:47:41.796Z,101843.98
2018-04-19T15:50:09.366Z,101851.36
2018-04-19T15:52:36.916Z,101844.53
2018-04-19T15:55:04.545Z,101849.70
2018-04-19T15:57:32.090Z,101851.20
2018-04-19T15:59:59.660Z,101836.35
2018-04-19T16:02:27.279Z,101846.73
2018-04-19T16:04:54.872Z,101839.50
2018-04-19T16:07:22.482Z,101837.99
2018-04-19T16:09:50.087Z,101833.55
2018-04-19T16:12:17.639Z,101842.21
2018-04-19T16:14:45.232Z,101821.46
2018-04-19T16:17:12.832Z,101842.21
2018-04-19T16:19:40.378Z,101836.04
2018-04-19T16:22:07.940Z,101830.25
2018-04-19T16:24:35.568Z,101830.50
2018-04-19T16:27:03.647Z,101829.84
2018-04-19T16:29:31.492Z,101824.75
2018-04-19T16:31:59.049Z,101823.12
2018-04-19T16:34:26.657Z,101823.78
2018-04-19T16:36:54.206Z,101821.88
2018-04-19T16:39:21.791Z,101824.62
2018-04-19T16:41:49.362Z,101822.34
2018-04-19T16:44:16.933Z,101814.10
2018-04-19T16:46:44.493Z,101818.23
2018-04-19T16:49:12.100Z,101809.96
2018-04-19T16:51:39.680Z,101807.52
2018-04-19T16:54:07.260Z,101809.81
2018-04-19T16:56:35.030Z,101807.58
2018-04-19T16:59:02.851Z,101805.45
2018-04-19T17:01:30.415Z,101805.01
2018-04-19T17:03:57.983Z,101802.52
2018-04-19T17:06:25.650Z,101806.72
2018-04-19T17:08:53.365Z,101804.66
2018-04-19T17:11:20.949Z,101806.14
2018-04-19T17:13:48.524Z,101814.87
2018-04-19T17:16:16.133Z,101807.49
2018-04-19T17:18:43.674Z,101812.30
2018-04-19T17:21:11.228Z,101814.14
2018-04-19T17:23:38.865Z,101815.80
2018-04-19T17:26:06.622Z,101814.39
2018-04-19T17:28:34.165Z,101810.69
2018-04-19T17:31:01.888Z,101807.58
2018-04-19T17:33:29.656Z,101801.28
2018-04-19T17:35:57.215Z,101807.64
2018-04-19T17:38:24.805Z,101798.73
2018-04-19T17:40:52.391Z,101804.52
2018-04-19T17:43:20.050Z,101802.03
2018-04-19T17:45:47.605Z,101803.72
2018-04-19T17:48:15.154Z,101798.71
2018-04-19T17:50:42.988Z,101801.40
2018-04-19T17:53:10.745Z,101807.73
2018-04-19T17:55:38.305Z,101796.53
2018-04-19T17:58:05.973Z,101804.62
2018-04-19T18:00:33.690Z,101794.06
2018-04-19T18:03:01.233Z,101797.29
2018-04-19T18:05:28.822Z,101802.63
2018-04-19T18:07:56.382Z,101803.48
2018-04-19T18:10:23.962Z,101797.06
2018-04-19T18:12:51.540Z,101799.17
2018-04-19T18:15:19.101Z,101799.03
2018-04-19T18:17:46.756Z,101796.94
2018-04-19T18:20:14.810Z,101802.41
2018-04-19T18:22:42.375Z,101799.66
2018-04-19T18:25:10.312Z,101803.93
2018-04-19T18:27:37.901Z,101797.09
2018-04-19T18:30:05.485Z,101802.87
2018-04-19T18:32:33.045Z,101801.41
2018-04-19T18:35:00.824Z,101800.56
2018-04-19T18:37:28.430Z,101801.95
2018-04-19T18:39:56.009Z,101804.37
2018-04-19T18:42:23.637Z,101806.28
2018-04-19T18:44:51.233Z,101806.67
2018-04-19T18:47:18.796Z,101807.27
2018-04-19T18:49:46.414Z,101808.98
2018-04-19T18:52:13.985Z,101812.15
2018-04-19T18:54:41.553Z,101810.94
2018-04-19T18:57:09.128Z,101806.34
2018-04-19T18:59:36.694Z,101807.03
2018-04-19T19:02:04.273Z,101808.06
2018-04-19T19:04:31.864Z,101809.63
2018-04-19T19:06:59.474Z,101816.84
2018-04-19T19:09:27.128Z,101811.67
2018-04-19T19:11:54.816Z,101813.63
2018-04-19T19:14:22.399Z,101813.02
2018-04-19T19:16:50.080Z,101819.52
2018-04-19T19:19:36.679Z,101820.34
2018-04-19T19:22:04.304Z,101819.72
2018-04-19T19:24:32.181Z,101822.22
2018-04-19T19:26:59.852Z,101817.27
2018-04-19T19:29:27.721Z,101819.38
2018-04-19T19:31:55.810Z,101829.41
2018-04-19T19:34:23.875Z,101822.39
2018-04-19T19:36:51.715Z,101826.16
2018-04-19T19:39:19.342Z,101823.97
2018-04-19T19:41:47.274Z,101821.69
2018-04-19T19:44:15.222Z,101827.89
2018-04-19T19:46:43.093Z,101825.67
2018-04-19T19:49:10.698Z,101824.41
2018-04-19T19:51:38.289Z,101821.21
2018-04-19T19:54:05.863Z,101821.77
2018-04-19T19:56:33.634Z,101818.88
2018-04-19T19:59:01.219Z,101815.12
2018-04-19T20:01:29.320Z,101815.31
2018-04-19T20:03:58.002Z,101812.70
2018-04-19T20:06:25.556Z,101814.73
2018-04-19T20:08:53.146Z,101812.14
2018-04-19T20:11:20.832Z,101808.25
2018-04-19T20:19:40.341Z,101809.02
2018-04-19T20:22:07.903Z,101804.56
2018-04-19T20:24:35.479Z,101801.51
2018-04-19T20:27:03.324Z,101802.94
2018-04-19T20:29:30.976Z,101801.71
2018-04-19T20:31:58.566Z,101795.75
2018-04-19T20:34:26.148Z,101798.02
2018-04-19T20:36:53.737Z,101795.66
2018-04-19T20:39:21.377Z,101791.88
2018-04-19T20:41:48.998Z,101795.98
2018-04-19T20:44:16.596Z,101791.42
2018-04-19T20:46:44.146Z,101790.80
2018-04-19T20:49:11.721Z,101792.61
2018-04-19T20:51:39.293Z,101792.11
2018-04-19T20:54:06.851Z,101791.30
2018-04-19T20:56:34.427Z,101786.20
2018-04-19T20:59:01.993Z,101790.44
2018-04-19T21:01:29.696Z,101789.02
2018-04-19T21:03:57.280Z,101789.87
2018-04-19T21:06:24.836Z,101785.70
2018-04-19T21:08:52.442Z,101789.87
2018-04-19T21:11:20.198Z,101783.84
2018-04-19T21:13:47.785Z,101782.84
2018-04-19T21:16:15.326Z,101782.66
2018-04-19T21:18:42.890Z,101781.02
2018-04-19T21:21:10.459Z,101779.41
2018-04-19T21:23:38.070Z,101776.01
2018-04-19T21:26:05.637Z,101778.04
2018-04-19T21:28:33.208Z,101781.36
2018-04-19T21:31:00.800Z,101777.95
2018-04-19T21:33:28.376Z,101776.45
2018-04-19T21:35:55.979Z,101768.94
2018-04-19T21:38:23.549Z,101768.47
2018-04-19T21:40:51.138Z,101769.78
2018-04-19T21:43:18.704Z,101760.73
2018-04-19T21:45:46.280Z,101760.36
2018-04-19T21:48:13.823Z,101752.61
2018-04-19T21:50:41.380Z,101755.48
2018-04-19T21:53:08.952Z,101752.51
2018-04-19T21:55:36.503Z,101752.61
2018-04-19T21:58:04.054Z,101745.22
2018-04-19T22:00:31.603Z,101740.42
2018-04-19T22:02:59.181Z,101743.93
2018-04-19T22:05:26.772Z,101740.05
2018-04-19T22:07:54.335Z,101740.45
2018-04-19T22:10:21.889Z,101734.06
2018-04-19T22:12:49.457Z,101734.09
2018-04-19T22:15:17.016Z,101737.55
2018-04-19T22:17:44.589Z,101731.05
2018-04-19T22:20:12.141Z,101732.50
2018-04-19T22:22:39.693Z,101729.81
2018-04-19T22:25:07.255Z,101730.38
2018-04-19T22:27:34.876Z,101726.75
2018-04-19T22:30:02.452Z,101726.98
2018-04-19T22:32:30.026Z,101727.08
2018-04-19T22:34:57.609Z,101722.34
2018-04-19T22:37:25.180Z,101718.06
2018-04-19T22:39:52.759Z,101719.25
2018-04-19T22:42:20.293Z,101721.56
2018-04-19T22:44:47.939Z,101718.20
2018-04-19T22:47:15.488Z,101716.77
2018-04-19T22:49:43.037Z,101712.64
2018-04-19T22:52:10.611Z,101708.55
2018-04-19T22:54:38.155Z,101710.78
2018-04-19T22:57:05.708Z,101709.13
2018-04-19T22:59:33.304Z,101703.09
2018-04-19T23:02:00.838Z,101702.27
2018-04-19T23:04:28.498Z,101704.16
2018-04-19T23:06:56.080Z,101699.02
2018-04-19T23:09:23.623Z,101702.50
2018-04-19T23:11:51.195Z,101699.08
2018-04-19T23:14:18.737Z,101701.73
2018-04-19T23:16:46.293Z,101689.50
2018-04-19T23:19:13.839Z,101693.56
2018-04-19T23:21:41.412Z,101687.28
2018-04-19T23:24:08.979Z,101692.67
2018-04-19T23:26:36.532Z,101683.96
2018-04-19T23:29:04.135Z,101681.12
2018-04-19T23:31:31.706Z,101683.22
2018-04-19T23:33:59.251Z,101678.45
2018-04-19T23:36:26.836Z,101671.48
2018-04-19T23:38:54.391Z,101674.81
2018-04-19T23:41:21.971Z,101672.02
2018-04-19T23:43:49.552Z,101665.31
2018-04-19T23:46:17.120Z,101659.02
2018-04-19T23:48:44.663Z,101665.47
2018-04-19T23:51:12.221Z,101659.72
2018-04-19T23:53:39.786Z,101663.33
2018-04-19T23:56:07.342Z,101660.37
2018-04-19T23:58:34.911Z,101656.98
